Aviation Digital Data Service (ADDS)

Output produced by TAFs form (1812 UTC 28 January 2015)
found at http://www.aviationweather.gov/adds/tafs/
 
KPOU 281731Z 2818/2918 35008KT P6SM SKC 
     FM282300 34003KT P6SM SKC 
     FM291600 19003KT P6SM FEW100 BKN200